sensor_id;sensor_type;location;lat;lon;timestamp;temperature;humidity
9265;DHT22;4669;49.594;10.958;2023-05-10T04:27:19;15.80;99.90
9265;DHT22;4669;49.594;10.958;2023-05-10T04:32:21;15.70;99.90
9265;DHT22;4669;49.594;10.958;2023-05-10T04:37:23;15.60;99.90
9265;DHT22;4669;49.594;10.958;2023-05-10T04:42:26;15.50;99.90
9265;DHT22;4669;49.594;10.958;2023-05-10T04:47:28;15.40;99.90
9265;DHT22;4669;49.594;10.958;2023-05-10T04:52:30;15.30;99.90
9265;DHT22;4669;49.594;10.958;2023-05-10T04:57:34;15.30;99.90
9265;DHT22;4669;49.594;10.958;2023-05-10T05:02:36;15.20;99.90
9265;DHT22;4669;49.594;10.958;2023-05-10T05:07:38;15.20;99.90
9265;DHT22;4669;49.594;10.958;2023-05-10T05:12:41;15.20;99.90
9265;DHT22;4669;49.594;10.958;2023-05-10T05:17:43;15.20;99.90
9265;DHT22;4669;49.594;10.958;2023-05-10T05:22:46;15.10;99.90
9265;DHT22;4669;49.594;10.958;2023-05-10T05:27:49;15.00;99.90
9265;DHT22;4669;49.594;10.958;2023-05-10T05:32:51;15.10;99.90
9265;DHT22;4669;49.594;10.958;2023-05-10T05:37:53;15.10;99.90
9265;DHT22;4669;49.594;10.958;2023-05-10T05:42:57;15.10;99.90
9265;DHT22;4669;49.594;10.958;2023-05-10T05:47:59;15.20;99.90
9265;DHT22;4669;49.594;10.958;2023-05-10T05:53:02;15.20;99.90
9265;DHT22;4669;49.594;10.958;2023-05-10T05:58:05;15.20;99.90
9265;DHT22;4669;49.594;10.958;2023-05-10T06:03:07;15.20;99.90
9265;DHT22;4669;49.594;10.958;2023-05-10T06:08:09;15.20;99.90
9265;DHT22;4669;49.594;10.958;2023-05-10T06:13:13;15.20;99.90
9265;DHT22;4669;49.594;10.958;2023-05-10T06:18:15;15.10;99.90
9265;DHT22;4669;49.594;10.958;2023-05-10T06:23:17;15.20;99.90
9265;DHT22;4669;49.594;10.958;2023-05-10T06:28:21;15.10;99.90
9265;DHT22;4669;49.594;10.958;2023-05-10T06:33:23;15.10;99.90
9265;DHT22;4669;49.594;10.958;2023-05-10T06:38:25;15.30;99.90
9265;DHT22;4669;49.594;10.958;2023-05-10T06:43:29;15.50;99.90
9265;DHT22;4669;49.594;10.958;2023-05-10T06:48:31;15.60;99.90
9265;DHT22;4669;49.594;10.958;2023-05-10T06:53:33;15.60;99.90
9265;DHT22;4669;49.594;10.958;2023-05-10T06:58:37;15.70;99.90
9265;DHT22;4669;49.594;10.958;2023-05-10T07:03:39;15.80;99.90
9265;DHT22;4669;49.594;10.958;2023-05-10T07:08:41;15.90;99.90
9265;DHT22;4669;49.594;10.958;2023-05-10T07:13:45;15.90;99.90
9265;DHT22;4669;49.594;10.958;2023-05-10T07:18:47;15.90;99.90
9265;DHT22;4669;49.594;10.958;2023-05-10T07:23:51;15.90;99.90
9265;DHT22;4669;49.594;10.958;2023-05-10T07:28:55;16.00;99.90
9265;DHT22;4669;49.594;10.958;2023-05-10T07:33:57;16.10;99.90
9265;DHT22;4669;49.594;10.958;2023-05-10T07:38:59;16.20;99.90
9265;DHT22;4669;49.594;10.958;2023-05-10T07:44:03;16.30;99.90
9265;DHT22;4669;49.594;10.958;2023-05-10T07:49:05;16.20;99.90
9265;DHT22;4669;49.594;10.958;2023-05-10T07:54:07;16.20;99.90
9265;DHT22;4669;49.594;10.958;2023-05-10T07:59:15;16.20;99.90
9265;DHT22;4669;49.594;10.958;2023-05-10T08:04:17;16.20;99.90
9265;DHT22;4669;49.594;10.958;2023-05-10T08:09:19;16.20;99.90
9265;DHT22;4669;49.594;10.958;2023-05-10T08:14:26;16.30;99.90
9265;DHT22;4669;49.594;10.958;2023-05-10T08:19:29;16.20;99.90
9265;DHT22;4669;49.594;10.958;2023-05-10T08:24:31;16.30;99.90
9265;DHT22;4669;49.594;10.958;2023-05-10T08:29:34;16.30;99.90
9265;DHT22;4669;49.594;10.958;2023-05-10T08:34:37;16.30;99.90
9265;DHT22;4669;49.594;10.958;2023-05-10T08:39:39;16.40;99.90
9265;DHT22;4669;49.594;10.958;2023-05-10T08:44:42;16.50;99.90
9265;DHT22;4669;49.594;10.958;2023-05-10T08:49:47;16.50;99.90
9265;DHT22;4669;49.594;10.958;2023-05-10T08:54:49;16.40;99.90
9265;DHT22;4669;49.594;10.958;2023-05-10T08:59:53;16.20;99.90
9265;DHT22;4669;49.594;10.958;2023-05-10T09:04:55;16.40;99.90
9265;DHT22;4669;49.594;10.958;2023-05-10T09:09:58;16.60;99.90
9265;DHT22;4669;49.594;10.958;2023-05-10T09:15:02;17.00;99.90
9265;DHT22;4669;49.594;10.958;2023-05-10T09:20:05;17.20;99.90
9265;DHT22;4669;49.594;10.958;2023-05-10T09:25:10;17.30;99.90
9265;DHT22;4669;49.594;10.958;2023-05-10T09:30:17;17.30;99.90
9265;DHT22;4669;49.594;10.958;2023-05-10T09:35:21;17.50;99.90
9265;DHT22;4669;49.594;10.958;2023-05-10T09:40:24;17.50;99.90
9265;DHT22;4669;49.594;10.958;2023-05-10T09:45:29;17.40;99.90
9265;DHT22;4669;49.594;10.958;2023-05-10T09:50:32;17.30;99.90
9265;DHT22;4669;49.594;10.958;2023-05-10T09:55:42;17.30;99.80
9265;DHT22;4669;49.594;10.958;2023-05-10T10:00:47;17.20;99.90
9265;DHT22;4669;49.594;10.958;2023-05-10T10:05:52;17.30;99.30
9265;DHT22;4669;49.594;10.958;2023-05-10T10:10:56;17.30;99.20
9265;DHT22;4669;49.594;10.958;2023-05-10T10:16:00;17.50;98.40
9265;DHT22;4669;49.594;10.958;2023-05-10T10:21:02;17.60;99.00
9265;DHT22;4669;49.594;10.958;2023-05-10T10:26:04;17.90;98.70
9265;DHT22;4669;49.594;10.958;2023-05-10T10:31:20;17.90;98.50
9265;DHT22;4669;49.594;10.958;2023-05-10T10:36:25;17.80;98.70
9265;DHT22;4669;49.594;10.958;2023-05-10T10:41:31;17.80;97.60
9265;DHT22;4669;49.594;10.958;2023-05-10T10:46:34;17.80;97.00
9265;DHT22;4669;49.594;10.958;2023-05-10T10:52:20;17.60;97.60
9265;DHT22;4669;49.594;10.958;2023-05-10T10:57:22;17.70;97.80
9265;DHT22;4669;49.594;10.958;2023-05-10T11:02:43;17.70;97.80
9265;DHT22;4669;49.594;10.958;2023-05-10T11:07:53;17.70;98.00
9265;DHT22;4669;49.594;10.958;2023-05-10T11:12:59;17.80;97.90
9265;DHT22;4669;49.594;10.958;2023-05-10T11:18:19;17.80;97.50
9265;DHT22;4669;49.594;10.958;2023-05-10T11:23:21;17.70;98.40
9265;DHT22;4669;49.594;10.958;2023-05-10T11:28:24;17.50;99.40
9265;DHT22;4669;49.594;10.958;2023-05-10T11:33:29;17.50;99.10
9265;DHT22;4669;49.594;10.958;2023-05-10T11:38:33;17.50;99.50
9265;DHT22;4669;49.594;10.958;2023-05-10T11:43:35;17.60;99.40
9265;DHT22;4669;49.594;10.958;2023-05-10T11:48:40;17.60;98.80
9265;DHT22;4669;49.594;10.958;2023-05-10T11:53:43;17.70;98.20
9265;DHT22;4669;49.594;10.958;2023-05-10T11:58:45;17.80;98.10
9265;DHT22;4669;49.594;10.958;2023-05-10T12:03:49;17.80;97.70
9265;DHT22;4669;49.594;10.958;2023-05-10T12:08:52;17.60;98.20
9265;DHT22;4669;49.594;10.958;2023-05-10T12:13:54;17.60;98.20
9265;DHT22;4669;49.594;10.958;2023-05-10T12:19:00;17.60;98.50
9265;DHT22;4669;49.594;10.958;2023-05-10T12:24:03;17.70;98.40
9265;DHT22;4669;49.594;10.958;2023-05-10T12:29:13;17.60;98.60
9265;DHT22;4669;49.594;10.958;2023-05-10T12:34:24;17.70;98.60
9265;DHT22;4669;49.594;10.958;2023-05-10T12:39:38;18.00;97.70
9265;DHT22;4669;49.594;10.958;2023-05-10T12:44:40;18.10;97.40
9265;DHT22;4669;49.594;10.958;2023-05-10T12:49:44;18.10;97.90
9265;DHT22;4669;49.594;10.958;2023-05-10T12:54:46;18.10;98.00
9265;DHT22;4669;49.594;10.958;2023-05-10T12:59:49;18.10;98.00
9265;DHT22;4669;49.594;10.958;2023-05-10T13:04:53;17.90;98.40
9265;DHT22;4669;49.594;10.958;2023-05-10T13:09:55;17.70;98.90
9265;DHT22;4669;49.594;10.958;2023-05-10T13:14:57;17.60;99.90
9265;DHT22;4669;49.594;10.958;2023-05-10T13:20:01;17.50;99.90
9265;DHT22;4669;49.594;10.958;2023-05-10T13:25:05;17.60;99.90
9265;DHT22;4669;49.594;10.958;2023-05-10T13:30:07;17.60;99.90
9265;DHT22;4669;49.594;10.958;2023-05-10T13:35:11;17.60;99.90
9265;DHT22;4669;49.594;10.958;2023-05-10T13:40:13;17.70;99.90
9265;DHT22;4669;49.594;10.958;2023-05-10T13:45:16;17.70;99.90
9265;DHT22;4669;49.594;10.958;2023-05-10T13:50:20;17.70;99.90
9265;DHT22;4669;49.594;10.958;2023-05-10T13:55:22;17.80;99.90
9265;DHT22;4669;49.594;10.958;2023-05-10T14:00:24;17.80;99.90
9265;DHT22;4669;49.594;10.958;2023-05-10T14:05:27;17.80;99.90
9265;DHT22;4669;49.594;10.958;2023-05-10T14:10:30;17.80;99.90
9265;DHT22;4669;49.594;10.958;2023-05-10T14:15:32;17.70;99.90
9265;DHT22;4669;49.594;10.958;2023-05-10T14:20:35;17.60;99.50
9265;DHT22;4669;49.594;10.958;2023-05-10T14:25:38;17.60;99.60
9265;DHT22;4669;49.594;10.958;2023-05-10T14:30:40;17.60;98.80
9265;DHT22;4669;49.594;10.958;2023-05-10T14:35:44;17.50;99.20
9265;DHT22;4669;49.594;10.958;2023-05-10T14:40:47;17.50;99.00
9265;DHT22;4669;49.594;10.958;2023-05-10T14:45:49;17.60;99.00
9265;DHT22;4669;49.594;10.958;2023-05-10T14:50:53;17.70;98.70
9265;DHT22;4669;49.594;10.958;2023-05-10T14:55:55;17.80;99.30
9265;DHT22;4669;49.594;10.958;2023-05-10T15:00:58;17.60;98.40
9265;DHT22;4669;49.594;10.958;2023-05-10T15:06:03;17.30;99.80
9265;DHT22;4669;49.594;10.958;2023-05-10T15:11:05;16.20;99.90
9265;DHT22;4669;49.594;10.958;2023-05-10T15:16:07;15.40;99.90
9265;DHT22;4669;49.594;10.958;2023-05-10T15:21:11;15.20;99.90
9265;DHT22;4669;49.594;10.958;2023-05-10T15:26:13;15.20;99.90
9265;DHT22;4669;49.594;10.958;2023-05-10T15:31:16;15.30;99.90
9265;DHT22;4669;49.594;10.958;2023-05-10T15:36:19;15.40;99.90
9265;DHT22;4669;49.594;10.958;2023-05-10T15:41:21;15.40;99.90
9265;DHT22;4669;49.594;10.958;2023-05-10T15:46:24;15.30;99.90
9265;DHT22;4669;49.594;10.958;2023-05-10T15:51:27;15.30;99.90
9265;DHT22;4669;49.594;10.958;2023-05-10T15:56:30;15.30;99.90
9265;DHT22;4669;49.594;10.958;2023-05-10T16:01:32;15.50;99.90
9265;DHT22;4669;49.594;10.958;2023-05-10T16:06:36;15.60;99.90
9265;DHT22;4669;49.594;10.958;2023-05-10T16:11:38;15.70;99.90
9265;DHT22;4669;49.594;10.958;2023-05-10T16:16:40;16.00;99.90
9265;DHT22;4669;49.594;10.958;2023-05-10T16:21:46;16.20;99.90
9265;DHT22;4669;49.594;10.958;2023-05-10T16:26:48;16.20;99.90
9265;DHT22;4669;49.594;10.958;2023-05-10T16:31:50;16.20;99.90
9265;DHT22;4669;49.594;10.958;2023-05-10T16:36:54;16.40;99.90
9265;DHT22;4669;49.594;10.958;2023-05-10T16:41:56;16.30;99.90
9265;DHT22;4669;49.594;10.958;2023-05-10T16:46:58;16.30;99.90
9265;DHT22;4669;49.594;10.958;2023-05-10T16:52:01;16.30;99.90
9265;DHT22;4669;49.594;10.958;2023-05-10T16:57:04;16.10;99.90
9265;DHT22;4669;49.594;10.958;2023-05-10T17:02:06;16.00;99.90
9265;DHT22;4669;49.594;10.958;2023-05-10T17:07:10;16.00;99.90
9265;DHT22;4669;49.594;10.958;2023-05-10T17:12:13;16.10;99.90
9265;DHT22;4669;49.594;10.958;2023-05-10T17:17:15;16.00;99.90
9265;DHT22;4669;49.594;10.958;2023-05-10T17:22:19;15.90;99.90
9265;DHT22;4669;49.594;10.958;2023-05-10T17:27:21;15.90;99.90
9265;DHT22;4669;49.594;10.958;2023-05-10T17:32:23;16.00;99.90
9265;DHT22;4669;49.594;10.958;2023-05-10T17:37:27;16.00;99.90
9265;DHT22;4669;49.594;10.958;2023-05-10T17:42:29;16.00;99.90
9265;DHT22;4669;49.594;10.958;2023-05-10T17:47:32;16.00;99.90
9265;DHT22;4669;49.594;10.958;2023-05-10T17:52:36;16.00;99.90
9265;DHT22;4669;49.594;10.958;2023-05-10T17:57:38;16.00;99.90
9265;DHT22;4669;49.594;10.958;2023-05-10T18:02:40;16.00;99.90
9265;DHT22;4669;49.594;10.958;2023-05-10T18:07:44;16.00;99.90
9265;DHT22;4669;49.594;10.958;2023-05-10T18:12:46;16.00;99.90
9265;DHT22;4669;49.594;10.958;2023-05-10T18:17:50;16.00;99.90
9265;DHT22;4669;49.594;10.958;2023-05-10T18:22:54;16.00;99.90
9265;DHT22;4669;49.594;10.958;2023-05-10T18:27:57;15.90;99.90
9265;DHT22;4669;49.594;10.958;2023-05-10T18:32:59;15.90;99.90
9265;DHT22;4669;49.594;10.958;2023-05-10T18:38:03;15.90;99.90
9265;DHT22;4669;49.594;10.958;2023-05-10T18:43:05;15.90;99.90
9265;DHT22;4669;49.594;10.958;2023-05-10T18:48:07;15.90;99.90
9265;DHT22;4669;49.594;10.958;2023-05-10T18:53:10;15.80;99.90
9265;DHT22;4669;49.594;10.958;2023-05-10T18:58:12;15.90;99.90
9265;DHT22;4669;49.594;10.958;2023-05-10T19:03:14;15.90;99.90
9265;DHT22;4669;49.594;10.958;2023-05-10T19:08:18;15.80;99.90
9265;DHT22;4669;49.594;10.958;2023-05-10T19:13:20;15.70;99.90
9265;DHT22;4669;49.594;10.958;2023-05-10T19:18:22;15.70;99.90
9265;DHT22;4669;49.594;10.958;2023-05-10T19:23:25;15.70;99.90
9265;DHT22;4669;49.594;10.958;2023-05-10T19:28:27;15.70;99.90
9265;DHT22;4669;49.594;10.958;2023-05-10T19:33:29;15.70;99.90
9265;DHT22;4669;49.594;10.958;2023-05-10T19:38:32;15.70;99.90
9265;DHT22;4669;49.594;10.958;2023-05-10T19:43:35;15.70;99.90
9265;DHT22;4669;49.594;10.958;2023-05-10T19:48:38;15.70;99.90
9265;DHT22;4669;49.594;10.958;2023-05-10T19:53:41;15.70;99.90
9265;DHT22;4669;49.594;10.958;2023-05-10T19:58:44;15.70;99.90
9265;DHT22;4669;49.594;10.958;2023-05-10T20:03:46;15.70;99.90
9265;DHT22;4669;49.594;10.958;2023-05-10T20:08:49;15.60;99.90
9265;DHT22;4669;49.594;10.958;2023-05-10T20:13:51;15.60;99.90
9265;DHT22;4669;49.594;10.958;2023-05-10T20:18:53;15.40;99.90
9265;DHT22;4669;49.594;10.958;2023-05-10T20:23:57;15.50;99.90
9265;DHT22;4669;49.594;10.958;2023-05-10T20:28:59;15.50;99.90
9265;DHT22;4669;49.594;10.958;2023-05-10T20:34:01;15.50;99.90
9265;DHT22;4669;49.594;10.958;2023-05-10T20:39:04;15.50;99.90
9265;DHT22;4669;49.594;10.958;2023-05-10T20:44:07;15.50;99.90
9265;DHT22;4669;49.594;10.958;2023-05-10T20:49:09;15.50;99.90
9265;DHT22;4669;49.594;10.958;2023-05-10T20:54:12;15.50;99.90
9265;DHT22;4669;49.594;10.958;2023-05-10T20:59:15;15.50;99.90
9265;DHT22;4669;49.594;10.958;2023-05-10T21:04:17;15.40;99.90
9265;DHT22;4669;49.594;10.958;2023-05-10T21:09:21;15.50;99.90
9265;DHT22;4669;49.594;10.958;2023-05-10T21:14:23;15.40;99.90
9265;DHT22;4669;49.594;10.958;2023-05-10T21:19:25;15.40;99.90
9265;DHT22;4669;49.594;10.958;2023-05-10T21:24:29;15.40;99.90
9265;DHT22;4669;49.594;10.958;2023-05-10T21:29:33;15.40;99.90
9265;DHT22;4669;49.594;10.958;2023-05-10T21:34:35;15.30;99.90
9265;DHT22;4669;49.594;10.958;2023-05-10T21:39:38;15.40;99.90
9265;DHT22;4669;49.594;10.958;2023-05-10T21:44:40;15.40;99.90
9265;DHT22;4669;49.594;10.958;2023-05-10T21:49:43;15.30;99.90
9265;DHT22;4669;49.594;10.958;2023-05-10T21:54:47;15.40;99.90
9265;DHT22;4669;49.594;10.958;2023-05-10T21:59:49;15.30;99.90
